Melita, Canada
Current Conditions -  °F | °C
As of 1:58 PM on Thursday 23 Oct 2014 (Local Time) from KMIB Reporting Station
Clear Clear  
Wind Chill: 68°   Ceiling: Unl
Heat Index: 68°   Visibility: 10mi
Dew Point: 35°   Wind: 10mph
Humidity: 29%   Direction: 230°SW
Pressure: 29.77"   Gusts: NA
Location:  49.27°N, 100.99°W
Report Text: KMIB 231858Z AUTO 23009KT 10SM CLR 20/02 A2977 RMK AO2 SLP088 T01990015 $
Loading
Personal Weather Stations






























Interactive Weather Map
Tropical Storm Tracking
New forecast layout! Learn more

10-Day Weather Forecast

Advertisements
Track Severe Weather on mobile